createdAt,value
2022-08-02T00:00:12.819Z,96247.63
2022-08-02T00:02:39.555Z,96250.78
2022-08-02T00:05:07.631Z,96258.50
2022-08-02T00:07:40.535Z,96257.69
2022-08-02T00:10:09.860Z,96261.19
2022-08-02T00:12:36.634Z,96267.44
2022-08-02T00:15:04.696Z,96265.09
2022-08-02T00:17:31.401Z,96256.19
2022-08-02T00:19:58.135Z,96265.78
2022-08-02T00:22:24.872Z,96258.91
2022-08-02T00:24:51.566Z,96256.00
2022-08-02T00:27:18.311Z,96254.16
2022-08-02T00:29:52.474Z,96258.25
2022-08-02T00:32:34.641Z,96257.22
2022-08-02T00:35:01.371Z,96265.94
2022-08-02T00:37:28.033Z,96263.00
2022-08-02T00:39:54.730Z,96271.94
2022-08-02T00:42:21.551Z,96277.31
2022-08-02T00:44:48.244Z,96285.81
2022-08-02T00:47:19.540Z,96292.03
2022-08-02T00:49:47.316Z,96291.06
2022-08-02T00:52:14.887Z,96289.84
2022-08-02T00:54:42.082Z,96298.97
2022-08-02T00:57:08.807Z,96291.31
2022-08-02T00:59:35.588Z,96290.97
2022-08-02T01:02:02.379Z,96296.63
2022-08-02T01:04:31.469Z,96301.81
2022-08-02T01:07:12.261Z,96301.38
2022-08-02T01:09:42.090Z,96299.09
2022-08-02T01:12:09.625Z,96287.50
2022-08-02T01:14:37.713Z,96286.81
2022-08-02T01:17:12.427Z,96288.94
2022-08-02T01:19:51.191Z,96279.13
2022-08-02T01:25:44.176Z,96283.47
2022-08-02T01:28:32.650Z,96282.22
2022-08-02T01:31:22.962Z,96274.75
2022-08-02T01:34:02.653Z,96273.31
2022-08-02T01:36:36.660Z,96271.91
2022-08-02T01:39:06.095Z,96265.44
2022-08-02T01:41:35.118Z,96268.66
2022-08-02T01:44:03.899Z,96276.84
2022-08-02T01:46:33.074Z,96280.78
2022-08-02T01:49:04.623Z,96283.50
2022-08-02T01:51:56.414Z,96277.06
2022-08-02T01:54:27.312Z,96278.09
2022-08-02T01:56:56.525Z,96275.88
2022-08-02T01:59:24.321Z,96272.16
2022-08-02T02:01:54.179Z,96276.28
2022-08-02T02:04:22.222Z,96266.72
2022-08-02T02:06:49.831Z,96266.94
2022-08-02T02:09:17.427Z,96262.63
2022-08-02T02:12:09.801Z,96262.41
2022-08-02T02:14:35.048Z,96270.91
2022-08-02T02:17:02.965Z,96263.16
2022-08-02T02:19:30.678Z,96265.06
2022-08-02T02:21:57.771Z,96268.19
2022-08-02T02:24:24.673Z,96274.84
2022-08-02T02:26:52.355Z,96275.88
2022-08-02T02:29:22.093Z,96276.50
2022-08-02T02:31:53.330Z,96281.47
2022-08-02T02:34:28.923Z,96283.97
2022-08-02T02:36:58.288Z,96292.72
2022-08-02T02:39:28.513Z,96287.78
2022-08-02T02:41:58.764Z,96277.44
2022-08-02T02:44:26.596Z,96281.19
2022-08-02T02:46:55.538Z,96279.50
2022-08-02T02:49:24.311Z,96279.50
2022-08-02T02:51:52.799Z,96279.50
2022-08-02T02:54:32.616Z,96279.09
2022-08-02T02:57:02.666Z,96271.19
2022-08-02T02:59:30.418Z,96274.13
2022-08-02T03:01:58.905Z,96264.75
2022-08-02T03:04:28.078Z,96265.97
2022-08-02T03:07:14.873Z,96260.16
2022-08-02T03:09:41.614Z,96259.94
2022-08-02T03:12:10.225Z,96264.16
2022-08-02T03:14:43.229Z,96266.03
2022-08-02T03:17:09.955Z,96256.66
2022-08-02T03:19:36.753Z,96254.97
2022-08-02T03:22:03.721Z,96262.84
2022-08-02T03:24:30.536Z,96260.97
2022-08-02T03:26:57.329Z,96261.38
2022-08-02T03:29:24.039Z,96259.47
2022-08-02T03:31:51.261Z,96260.50
2022-08-02T03:34:18.033Z,96253.88
2022-08-02T03:36:49.093Z,96245.34
2022-08-02T03:39:17.853Z,96248.66
2022-08-02T03:41:45.105Z,96251.97
2022-08-02T03:44:14.164Z,96247.38
2022-08-02T03:46:42.326Z,96245.34
2022-08-02T03:49:10.817Z,96247.00
2022-08-02T03:51:37.907Z,96234.56
2022-08-02T03:54:04.940Z,96256.97
2022-08-02T03:56:32.365Z,96258.44
2022-08-02T03:59:09.975Z,96256.56
2022-08-02T04:01:36.781Z,96252.38
2022-08-02T04:04:03.886Z,96259.44
2022-08-02T04:06:30.547Z,96259.44
2022-08-02T04:08:57.288Z,96256.19
2022-08-02T04:11:33.257Z,96262.84
2022-08-02T04:14:03.208Z,96265.31
2022-08-02T04:16:52.820Z,96262.41
2022-08-02T04:19:28.123Z,96267.75
2022-08-02T04:21:56.298Z,96278.53
2022-08-02T04:24:27.998Z,96276.06
2022-08-02T04:27:06.845Z,96283.94
2022-08-02T04:29:49.040Z,96286.84
2022-08-02T04:32:17.408Z,96293.78
2022-08-02T04:35:11.282Z,96303.53
2022-08-02T04:40:15.604Z,96301.47
2022-08-02T04:42:42.893Z,96308.28
2022-08-02T04:45:35.016Z,96301.41
2022-08-02T04:48:15.796Z,96303.50
2022-08-02T04:50:58.911Z,96306.28
2022-08-02T04:53:42.742Z,96301.75
2022-08-02T04:56:12.576Z,96307.94
2022-08-02T04:58:50.220Z,96308.34
2022-08-02T05:01:43.111Z,96314.97
2022-08-02T05:04:10.251Z,96309.13
2022-08-02T05:06:40.015Z,96308.09
2022-08-02T05:09:13.409Z,96315.69
2022-08-02T05:11:53.373Z,96313.22
2022-08-02T05:14:21.981Z,96309.44
2022-08-02T05:16:48.974Z,96320.59
2022-08-02T05:19:26.538Z,96316.41
2022-08-02T05:21:53.417Z,96309.38
2022-08-02T05:24:30.823Z,96304.56
2022-08-02T05:26:57.932Z,96313.41
2022-08-02T05:35:13.675Z,96319.09
2022-08-02T05:37:43.038Z,96317.81
2022-08-02T05:40:25.803Z,96313.00
2022-08-02T05:45:54.056Z,96312.25
2022-08-02T05:48:42.814Z,96303.78
2022-08-02T05:51:40.894Z,96308.22
2022-08-02T06:00:25.759Z,96316.97
2022-08-02T06:03:30.400Z,96308.66
2022-08-02T06:06:07.839Z,96313.28
2022-08-02T06:09:02.848Z,96316.00
2022-08-02T06:11:39.336Z,96313.38
2022-08-02T06:19:46.938Z,96326.06
2022-08-02T06:22:37.686Z,96330.56
2022-08-02T06:25:48.274Z,96326.75
2022-08-02T06:28:16.309Z,96328.28
2022-08-02T06:30:44.827Z,96335.25
2022-08-02T06:33:30.133Z,96330.19
2022-08-02T06:36:15.480Z,96336.31
2022-08-02T06:39:03.939Z,96331.03
2022-08-02T06:41:39.081Z,96338.25
2022-08-02T06:47:11.162Z,96329.19
2022-08-02T06:49:51.915Z,96327.06
2022-08-02T06:52:49.555Z,96325.47
2022-08-02T06:55:16.872Z,96322.97
2022-08-02T06:57:48.046Z,96322.47
2022-08-02T07:00:26.494Z,96324.47
2022-08-02T07:03:05.752Z,96328.94
2022-08-02T07:05:45.840Z,96329.78
2022-08-02T07:08:25.527Z,96336.63
2022-08-02T07:11:08.873Z,96330.88
2022-08-02T07:13:39.649Z,96331.88
2022-08-02T07:16:17.031Z,96337.16
2022-08-02T07:18:51.230Z,96338.44
2022-08-02T07:21:57.558Z,96333.97
2022-08-02T07:24:20.720Z,96327.47
2022-08-02T07:27:10.694Z,96331.97
2022-08-02T07:29:59.601Z,96327.53
2022-08-02T07:32:30.693Z,96332.91
2022-08-02T07:34:59.017Z,96336.47
2022-08-02T07:37:55.449Z,96335.41
2022-08-02T07:40:26.216Z,96351.97
2022-08-02T07:43:03.370Z,96345.19
2022-08-02T07:45:35.774Z,96348.41
2022-08-02T07:48:15.352Z,96342.28
2022-08-02T07:50:42.367Z,96337.75
2022-08-02T07:53:49.864Z,96342.06
2022-08-02T07:58:58.531Z,96343.00
2022-08-02T08:01:55.870Z,96337.94
2022-08-02T08:04:31.891Z,96333.16
2022-08-02T08:06:59.484Z,96331.88
2022-08-02T08:09:56.753Z,96332.47
2022-08-02T08:12:42.150Z,96322.63
2022-08-02T08:18:08.866Z,96338.06
2022-08-02T08:20:53.324Z,96332.06
2022-08-02T08:26:01.389Z,96345.69
2022-08-02T08:28:28.253Z,96335.34
2022-08-02T08:31:11.889Z,96339.44
2022-08-02T08:34:13.616Z,96341.59
2022-08-02T08:36:41.812Z,96348.88
2022-08-02T08:39:28.473Z,96362.72
2022-08-02T08:41:55.701Z,96361.31
2022-08-02T08:44:25.407Z,96367.56
2022-08-02T08:47:11.338Z,96366.19
2022-08-02T08:52:30.523Z,96384.31
2022-08-02T08:55:12.017Z,96386.66
2022-08-02T09:00:28.170Z,96388.84
2022-08-02T09:05:41.320Z,96396.06
2022-08-02T09:08:14.841Z,96392.25
2022-08-02T09:13:44.760Z,96398.22
2022-08-02T09:16:14.476Z,96400.59
2022-08-02T09:21:40.544Z,96407.38
2022-08-02T09:24:19.099Z,96406.81
2022-08-02T09:27:06.757Z,96417.97
2022-08-02T09:32:36.515Z,96419.28
2022-08-02T09:35:19.176Z,96423.34
2022-08-02T09:37:59.146Z,96426.34
2022-08-02T09:40:54.121Z,96428.25
2022-08-02T09:43:21.237Z,96429.94
2022-08-02T09:45:48.198Z,96427.84
2022-08-02T09:48:17.252Z,96430.84
2022-08-02T09:51:07.659Z,96432.31
2022-08-02T09:56:35.386Z,96416.28
2022-08-02T09:59:08.039Z,96418.19
2022-08-02T10:02:02.007Z,96416.56
2022-08-02T10:07:13.838Z,96410.38
2022-08-02T10:10:03.863Z,96406.00
2022-08-02T10:12:45.780Z,96401.84
2022-08-02T10:15:27.399Z,96402.44
2022-08-02T10:17:55.616Z,96399.53
2022-08-02T10:20:54.375Z,96403.38
2022-08-02T10:23:23.153Z,96401.22
2022-08-02T10:26:04.219Z,96406.50
2022-08-02T10:28:34.350Z,96416.97
2022-08-02T10:31:15.019Z,96403.59
2022-08-02T10:33:51.578Z,96400.06
2022-08-02T10:36:43.571Z,96397.31
2022-08-02T10:41:53.621Z,96395.50
2022-08-02T10:44:32.604Z,96383.53
2022-08-02T10:50:14.017Z,96380.72
2022-08-02T10:58:20.341Z,96367.16
2022-08-02T11:04:14.081Z,96360.25
2022-08-02T11:07:21.261Z,96359.88
2022-08-02T11:12:33.655Z,96352.19
2022-08-02T11:15:07.426Z,96337.56
2022-08-02T11:17:54.980Z,96344.28
2022-08-02T11:26:35.836Z,96341.59
2022-08-02T11:32:18.710Z,96335.06
2022-08-02T11:34:51.978Z,96341.88
2022-08-02T11:37:35.697Z,96336.94
2022-08-02T11:45:55.922Z,96334.91
2022-08-02T11:48:40.996Z,96334.09
2022-08-02T11:51:13.526Z,96330.78
2022-08-02T11:53:54.054Z,96343.63
2022-08-02T11:59:30.501Z,96339.03
2022-08-02T12:01:58.210Z,96331.91
2022-08-02T12:04:27.759Z,96332.19
2022-08-02T12:07:12.712Z,96339.47
2022-08-02T12:09:41.896Z,96334.00
2022-08-02T12:15:17.123Z,96335.63
2022-08-02T12:18:06.142Z,96345.97
2022-08-02T12:20:49.073Z,96348.16
2022-08-02T12:23:23.499Z,96347.78
2022-08-02T12:26:24.724Z,96335.16
2022-08-02T12:28:57.836Z,96338.66
2022-08-02T12:31:55.802Z,96345.53
2022-08-02T12:34:42.286Z,96345.56
2022-08-02T12:37:11.298Z,96342.53
2022-08-02T12:39:46.663Z,96347.47
2022-08-02T12:42:16.165Z,96346.38
2022-08-02T12:44:59.203Z,96340.38
2022-08-02T12:50:28.831Z,96349.72
2022-08-02T12:53:22.438Z,96348.59
2022-08-02T12:56:02.297Z,96358.91
2022-08-02T12:58:32.016Z,96352.25
2022-08-02T13:01:14.633Z,96357.75
2022-08-02T13:06:45.209Z,96360.28
2022-08-02T13:11:57.680Z,96363.31
2022-08-02T13:14:27.297Z,96372.44
2022-08-02T13:17:03.271Z,96369.72
2022-08-02T13:22:26.146Z,96364.94
2022-08-02T13:24:57.610Z,96360.09
2022-08-02T13:27:28.762Z,96368.53
2022-08-02T13:30:07.131Z,96365.31
2022-08-02T13:32:56.738Z,96357.56
2022-08-02T13:35:30.499Z,96368.44
2022-08-02T13:37:59.949Z,96363.22
2022-08-02T13:43:16.998Z,96351.41
2022-08-02T13:51:39.987Z,96342.41
2022-08-02T13:56:47.507Z,96339.66
2022-08-02T14:01:56.900Z,96336.22
2022-08-02T14:04:55.936Z,96338.84
2022-08-02T14:07:25.023Z,96339.34
2022-08-02T14:09:54.091Z,96340.41
2022-08-02T14:12:42.963Z,96354.59
2022-08-02T14:15:10.417Z,96348.25
2022-08-02T14:17:44.796Z,96352.31
2022-08-02T14:23:13.146Z,96346.47
2022-08-02T14:25:51.648Z,96357.31
2022-08-02T14:33:39.870Z,96351.00
2022-08-02T14:36:27.633Z,96343.59
2022-08-02T14:39:43.225Z,96342.66
2022-08-02T14:42:17.265Z,96338.09
2022-08-02T14:45:07.438Z,96331.19
2022-08-02T14:47:36.511Z,96331.63
2022-08-02T14:53:04.397Z,96322.00
2022-08-02T14:55:48.099Z,96316.56
2022-08-02T14:58:18.564Z,96318.22
2022-08-02T15:00:45.846Z,96312.50
2022-08-02T15:03:14.048Z,96317.69
2022-08-02T15:05:44.122Z,96313.97
2022-08-02T15:08:27.579Z,96317.88
2022-08-02T15:16:32.677Z,96312.19
2022-08-02T15:19:10.767Z,96309.13
2022-08-02T15:24:26.662Z,96299.84
2022-08-02T15:29:34.911Z,96297.50
2022-08-02T15:32:05.331Z,96298.84
2022-08-02T15:34:35.106Z,96297.41
2022-08-02T15:37:02.929Z,96296.28
2022-08-02T15:39:32.879Z,96293.13
2022-08-02T15:44:42.999Z,96291.38
2022-08-02T15:47:12.611Z,96292.19
2022-08-02T15:49:59.763Z,96295.66
2022-08-02T15:52:29.215Z,96297.19
2022-08-02T15:55:07.338Z,96296.84
2022-08-02T15:57:37.472Z,96293.25
2022-08-02T16:00:24.818Z,96300.25
2022-08-02T16:02:54.729Z,96306.84
2022-08-02T16:05:22.143Z,96307.78
2022-08-02T16:08:10.592Z,96309.09
2022-08-02T16:10:49.387Z,96314.28
2022-08-02T16:16:45.384Z,96316.16
2022-08-02T16:19:30.690Z,96319.97
2022-08-02T16:27:33.073Z,96323.25
2022-08-02T16:30:22.692Z,96316.75
2022-08-02T16:33:08.100Z,96317.81
2022-08-02T16:41:50.586Z,96318.41
2022-08-02T16:44:34.461Z,96314.59
2022-08-02T16:47:02.102Z,96325.53
2022-08-02T16:50:04.622Z,96309.16
2022-08-02T16:52:38.904Z,96310.00
2022-08-02T16:55:17.276Z,96317.38
2022-08-02T16:58:00.234Z,96321.75
2022-08-02T17:00:46.483Z,96320.44
2022-08-02T17:03:55.465Z,96325.06
2022-08-02T17:06:17.432Z,96327.78
2022-08-02T17:09:08.424Z,96326.38
2022-08-02T17:11:49.373Z,96338.09
2022-08-02T17:14:16.807Z,96331.16
2022-08-02T17:16:54.724Z,96340.72
2022-08-02T17:19:24.088Z,96326.22
2022-08-02T17:21:50.941Z,96332.19
2022-08-02T17:24:17.801Z,96335.16
2022-08-02T17:26:56.681Z,96331.84
2022-08-02T17:29:42.671Z,96336.72
2022-08-02T17:34:59.823Z,96339.91
2022-08-02T17:40:12.049Z,96330.31
2022-08-02T17:43:14.708Z,96333.72
2022-08-02T17:48:29.509Z,96339.47
2022-08-02T17:51:06.929Z,96337.78
2022-08-02T18:02:01.177Z,96354.19
2022-08-02T18:04:46.285Z,96352.94
2022-08-02T18:09:54.698Z,96360.22
2022-08-02T18:12:21.856Z,96354.38
2022-08-02T18:15:17.161Z,96366.41
2022-08-02T18:20:27.662Z,96376.84
2022-08-02T18:22:59.051Z,96369.56
2022-08-02T18:25:46.788Z,96375.34
2022-08-02T18:28:29.380Z,96373.84
2022-08-02T18:30:59.812Z,96367.13
2022-08-02T18:33:57.244Z,96378.66
2022-08-02T18:36:46.994Z,96378.34
2022-08-02T18:41:56.470Z,96381.47
2022-08-02T18:44:26.621Z,96382.88
2022-08-02T18:46:53.829Z,96381.13
2022-08-02T18:52:30.761Z,96393.69
2022-08-02T18:54:58.201Z,96402.38
2022-08-02T18:58:18.804Z,96403.28
2022-08-02T19:06:29.617Z,96404.72
2022-08-02T19:11:57.151Z,96416.50
2022-08-02T19:14:28.148Z,96413.50
2022-08-02T19:22:53.574Z,96411.19
2022-08-02T19:25:39.604Z,96409.38
2022-08-02T19:31:21.588Z,96414.88
2022-08-02T19:36:31.612Z,96419.47
2022-08-02T19:39:22.306Z,96421.34
2022-08-02T19:42:07.708Z,96424.13
2022-08-02T19:44:47.171Z,96430.81
2022-08-02T19:50:07.728Z,96428.03
2022-08-02T19:52:47.714Z,96430.34
2022-08-02T19:55:59.517Z,96430.41
2022-08-02T20:01:01.267Z,96434.50
2022-08-02T20:03:56.590Z,96439.66
2022-08-02T20:06:29.924Z,96430.53
2022-08-02T20:14:37.190Z,96436.16
2022-08-02T20:22:59.478Z,96430.44
2022-08-02T20:28:14.265Z,96431.31
2022-08-02T20:33:34.491Z,96440.91
2022-08-02T20:36:36.360Z,96445.13
2022-08-02T20:41:45.969Z,96440.38
2022-08-02T20:44:36.649Z,96446.03
2022-08-02T20:47:14.745Z,96452.25
2022-08-02T20:50:01.922Z,96442.91
2022-08-02T20:55:20.550Z,96448.59
2022-08-02T21:00:34.457Z,96437.22
2022-08-02T21:08:58.749Z,96435.78
2022-08-02T21:11:33.463Z,96442.91
2022-08-02T21:16:54.852Z,96439.19
2022-08-02T21:19:21.829Z,96435.28
2022-08-02T21:24:34.531Z,96427.66
2022-08-02T21:29:55.423Z,96431.84
2022-08-02T21:32:35.797Z,96427.25
2022-08-02T21:35:11.202Z,96438.97
2022-08-02T21:40:19.536Z,96439.78
2022-08-02T21:48:41.563Z,96446.22
2022-08-02T21:51:29.875Z,96449.75
2022-08-02T21:54:19.983Z,96440.44
2022-08-02T21:59:55.748Z,96442.69
2022-08-02T22:02:36.234Z,96439.22
2022-08-02T22:08:01.174Z,96448.94
2022-08-02T22:10:28.871Z,96439.63
2022-08-02T22:13:15.984Z,96439.41
2022-08-02T22:16:08.529Z,96441.06
2022-08-02T22:19:02.968Z,96444.81
2022-08-02T22:21:46.851Z,96449.16
2022-08-02T22:28:35.817Z,96450.66
2022-08-02T22:30:34.673Z,96439.03
2022-08-02T22:33:33.083Z,96436.94
2022-08-02T22:36:05.998Z,96430.72
2022-08-02T22:38:57.121Z,96432.75
2022-08-02T22:42:10.848Z,96443.72
2022-08-02T22:44:16.865Z,96437.75
2022-08-02T22:49:38.450Z,96436.28
2022-08-02T22:55:05.482Z,96435.03
2022-08-02T22:57:56.784Z,96430.69
2022-08-02T22:58:47.513Z,96409.59
2022-08-02T22:58:54.654Z,96433.25
2022-08-02T22:59:01.820Z,96429.38
2022-08-02T23:00:25.641Z,96438.13
2022-08-02T23:05:47.684Z,96436.34
2022-08-02T23:08:15.641Z,96448.94
2022-08-02T23:10:43.413Z,96452.72
2022-08-02T23:16:09.218Z,96450.06
2022-08-02T23:18:54.724Z,96450.50
2022-08-02T23:21:46.060Z,96443.03
2022-08-02T23:24:13.267Z,96446.31
2022-08-02T23:26:40.570Z,96445.09
2022-08-02T23:29:08.695Z,96440.34
2022-08-02T23:31:47.327Z,96443.06
2022-08-02T23:37:09.171Z,96443.28
2022-08-02T23:39:36.941Z,96437.28
2022-08-02T23:42:05.052Z,96442.09
2022-08-02T23:44:31.898Z,96448.97
2022-08-02T23:47:34.660Z,96451.25
2022-08-02T23:50:14.372Z,96450.00
2022-08-02T23:52:43.575Z,96449.00
2022-08-02T23:55:17.927Z,96446.72
